createdAt,value
2022-12-26T00:00:49.171Z,84.35
2022-12-26T00:03:56.306Z,84.51
2022-12-26T00:07:02.679Z,84.54
2022-12-26T00:10:08.130Z,84.72
2022-12-26T00:13:38.169Z,84.76
2022-12-26T00:16:43.783Z,84.70
2022-12-26T00:19:50.110Z,84.70
2022-12-26T00:22:56.386Z,84.64
2022-12-26T00:26:07.038Z,84.81
2022-12-26T00:29:13.223Z,84.81
2022-12-26T00:32:19.528Z,85.03
2022-12-26T00:35:24.011Z,84.99
2022-12-26T00:38:30.351Z,84.84
2022-12-26T00:41:34.847Z,84.80
2022-12-26T00:44:41.242Z,84.71
2022-12-26T00:47:45.710Z,84.66
2022-12-26T00:50:52.229Z,84.55
2022-12-26T00:53:58.526Z,84.80
2022-12-26T00:57:03.185Z,84.83
2022-12-26T01:00:11.711Z,85.03
2022-12-26T01:03:18.754Z,85.16
2022-12-26T01:06:25.063Z,85.18
2022-12-26T01:09:29.581Z,85.12
2022-12-26T01:12:36.172Z,85.34
2022-12-26T01:15:48.388Z,85.32
2022-12-26T01:18:54.636Z,85.29
2022-12-26T01:22:00.858Z,85.25
2022-12-26T01:25:09.045Z,85.21
2022-12-26T01:28:15.089Z,85.27
2022-12-26T01:31:22.063Z,85.17
2022-12-26T01:34:28.260Z,85.31
2022-12-26T01:37:34.517Z,85.39
2022-12-26T01:40:43.628Z,85.54
2022-12-26T01:43:54.415Z,85.43
2022-12-26T01:47:00.726Z,85.49
2022-12-26T01:50:06.312Z,85.67
2022-12-26T01:53:18.954Z,85.88
2022-12-26T01:56:31.013Z,85.95
2022-12-26T01:59:40.814Z,85.88
2022-12-26T02:03:06.233Z,85.73
2022-12-26T02:06:15.244Z,85.55
2022-12-26T02:09:22.208Z,85.69
2022-12-26T02:12:36.438Z,85.73
2022-12-26T02:15:45.052Z,85.90
2022-12-26T02:18:51.351Z,85.92
2022-12-26T02:22:09.370Z,85.74
2022-12-26T02:25:43.395Z,86.04
2022-12-26T02:29:25.296Z,86.13
2022-12-26T02:32:47.381Z,85.97
2022-12-26T02:36:12.684Z,85.99
2022-12-26T02:39:44.973Z,86.12
2022-12-26T02:42:59.753Z,86.24
2022-12-26T02:46:32.756Z,86.30
2022-12-26T02:50:10.791Z,86.30
2022-12-26T02:53:42.354Z,86.39
2022-12-26T02:57:11.555Z,86.48
2022-12-26T03:00:39.323Z,86.48
2022-12-26T03:04:06.790Z,86.31
2022-12-26T03:07:38.451Z,86.42
2022-12-26T03:11:02.541Z,86.40
2022-12-26T03:14:17.197Z,86.40
2022-12-26T03:17:29.956Z,86.68
2022-12-26T03:20:38.085Z,86.82
2022-12-26T03:23:47.775Z,86.59
2022-12-26T03:26:56.127Z,86.56
2022-12-26T03:30:28.183Z,86.81
2022-12-26T03:33:55.416Z,87.36
2022-12-26T03:37:22.513Z,88.37
2022-12-26T03:40:58.980Z,89.03
2022-12-26T03:44:38.448Z,89.04
2022-12-26T03:48:10.671Z,89.13
2022-12-26T03:51:42.735Z,89.09
2022-12-26T03:55:16.291Z,88.92
2022-12-26T03:58:45.973Z,88.73
2022-12-26T04:02:10.797Z,88.57
2022-12-26T04:05:36.129Z,88.56
2022-12-26T04:09:05.165Z,88.67
2022-12-26T04:12:35.500Z,88.64
2022-12-26T04:16:04.629Z,88.63
2022-12-26T04:19:28.097Z,88.36
2022-12-26T04:23:01.987Z,88.20
2022-12-26T04:26:31.347Z,88.10
2022-12-26T04:29:55.172Z,88.06
2022-12-26T04:33:25.504Z,87.78
2022-12-26T04:36:55.627Z,87.84
2022-12-26T04:40:20.838Z,87.70
2022-12-26T04:43:49.319Z,87.82
2022-12-26T04:46:59.170Z,87.54
2022-12-26T04:50:15.105Z,87.51
2022-12-26T04:53:22.079Z,87.63
2022-12-26T04:56:28.377Z,87.45
2022-12-26T04:59:33.042Z,87.43
2022-12-26T05:02:57.550Z,87.45
2022-12-26T05:06:22.134Z,87.33
2022-12-26T05:09:39.585Z,87.31
2022-12-26T05:12:45.927Z,87.03
2022-12-26T05:16:08.014Z,86.87
2022-12-26T05:19:47.844Z,86.79
2022-12-26T05:23:12.642Z,86.69
2022-12-26T05:26:39.988Z,86.61
2022-12-26T05:29:46.409Z,86.46
2022-12-26T05:33:07.983Z,86.37
2022-12-26T05:36:14.941Z,86.47
2022-12-26T05:39:21.525Z,86.20
2022-12-26T05:42:27.745Z,86.03
2022-12-26T05:45:32.256Z,86.01
2022-12-26T05:48:38.502Z,85.93
2022-12-26T05:51:43.040Z,85.72
2022-12-26T05:54:49.285Z,85.71
2022-12-26T05:57:53.874Z,85.64
2022-12-26T06:01:10.084Z,85.45
2022-12-26T06:04:16.488Z,85.40
2022-12-26T06:07:22.793Z,85.22
2022-12-26T06:10:29.827Z,85.09
2022-12-26T06:13:36.450Z,84.93
2022-12-26T06:16:42.780Z,84.99
2022-12-26T06:19:48.973Z,84.91
2022-12-26T06:22:53.584Z,84.63
2022-12-26T06:26:00.099Z,84.62
2022-12-26T06:29:06.363Z,84.46
2022-12-26T06:32:10.906Z,84.54
2022-12-26T06:35:17.154Z,84.24
2022-12-26T06:38:21.665Z,84.08
2022-12-26T06:41:28.337Z,83.97
2022-12-26T06:44:34.492Z,83.97
2022-12-26T06:47:39.010Z,83.88
2022-12-26T06:50:45.261Z,83.84
2022-12-26T06:53:50.120Z,83.69
2022-12-26T06:56:56.362Z,83.71
2022-12-26T07:00:00.822Z,83.77
2022-12-26T07:03:07.319Z,83.62
2022-12-26T07:06:25.786Z,83.58
2022-12-26T07:09:34.094Z,83.63
2022-12-26T07:12:40.631Z,83.50
2022-12-26T07:15:48.723Z,83.43
2022-12-26T07:18:57.277Z,83.38
2022-12-26T07:22:03.623Z,83.37
2022-12-26T07:25:11.396Z,83.25
2022-12-26T07:28:17.854Z,83.21
2022-12-26T07:31:24.708Z,82.96
2022-12-26T07:34:32.092Z,82.74
2022-12-26T07:37:38.697Z,82.67
2022-12-26T07:40:44.955Z,82.68
2022-12-26T07:43:49.592Z,82.74
2022-12-26T07:46:56.491Z,82.84
2022-12-26T07:50:02.744Z,82.82
2022-12-26T07:53:07.367Z,82.89
2022-12-26T07:56:13.738Z,82.73
2022-12-26T07:59:20.511Z,82.83
2022-12-26T08:02:27.011Z,82.90
2022-12-26T08:05:33.445Z,82.85
2022-12-26T08:08:41.926Z,82.86
2022-12-26T08:11:51.831Z,82.83
2022-12-26T08:14:56.346Z,82.69
2022-12-26T08:18:02.632Z,82.48
2022-12-26T08:21:08.878Z,82.30
2022-12-26T08:24:13.507Z,82.31
2022-12-26T08:27:19.754Z,82.22
2022-12-26T08:30:24.300Z,82.10
2022-12-26T08:33:30.562Z,82.01
2022-12-26T08:36:35.091Z,82.00
2022-12-26T08:39:41.317Z,81.90
2022-12-26T08:43:03.388Z,81.91
2022-12-26T08:46:13.823Z,81.78
2022-12-26T08:49:20.431Z,81.73
2022-12-26T08:52:26.759Z,81.70
2022-12-26T08:55:33.073Z,81.87
2022-12-26T08:58:39.420Z,81.75
2022-12-26T09:01:46.016Z,81.62
2022-12-26T09:04:52.368Z,81.49
2022-12-26T09:08:00.567Z,81.53
2022-12-26T09:11:09.419Z,81.57
2022-12-26T09:14:15.886Z,81.41
2022-12-26T09:17:22.165Z,81.19
2022-12-26T09:20:28.431Z,81.27
2022-12-26T09:23:33.251Z,81.21
2022-12-26T09:26:39.626Z,81.09
2022-12-26T09:29:45.901Z,81.15
2022-12-26T09:32:53.203Z,81.04
2022-12-26T09:36:03.854Z,80.91
2022-12-26T09:39:13.236Z,81.05
2022-12-26T09:42:33.778Z,81.11
2022-12-26T09:45:53.410Z,80.99
2022-12-26T09:49:04.134Z,80.81
2022-12-26T09:52:17.651Z,80.85
2022-12-26T09:55:38.926Z,80.87
2022-12-26T09:58:49.684Z,80.61
2022-12-26T10:01:56.585Z,80.65
2022-12-26T10:05:02.990Z,80.46
2022-12-26T10:08:25.758Z,80.43
2022-12-26T10:11:44.012Z,80.34
2022-12-26T10:14:56.697Z,80.30
2022-12-26T10:18:16.511Z,80.29
2022-12-26T10:21:36.901Z,80.14
2022-12-26T10:24:45.070Z,80.02
2022-12-26T10:27:53.105Z,79.93
2022-12-26T10:31:03.909Z,79.95
2022-12-26T10:34:18.643Z,79.90
2022-12-26T10:37:29.368Z,79.74
2022-12-26T10:40:41.938Z,79.76
2022-12-26T10:43:48.465Z,79.68
2022-12-26T10:47:21.165Z,79.71
2022-12-26T10:50:31.961Z,79.36
2022-12-26T10:53:41.726Z,79.26
2022-12-26T10:56:49.533Z,79.49
2022-12-26T10:59:57.324Z,79.45
2022-12-26T11:03:09.080Z,79.32
2022-12-26T11:06:15.336Z,79.32
2022-12-26T11:09:29.595Z,79.21
2022-12-26T11:12:43.015Z,79.03
2022-12-26T11:15:53.795Z,79.10
2022-12-26T11:19:00.468Z,78.98
2022-12-26T11:22:26.601Z,78.74
2022-12-26T11:25:35.267Z,78.67
2022-12-26T11:28:41.543Z,78.63
2022-12-26T11:32:02.875Z,78.63
2022-12-26T11:35:17.462Z,78.49
2022-12-26T11:38:44.584Z,78.44
2022-12-26T11:41:52.512Z,78.41
2022-12-26T11:45:03.908Z,78.40
2022-12-26T11:48:24.692Z,78.11
2022-12-26T11:51:43.775Z,77.96
2022-12-26T11:54:52.822Z,78.11
2022-12-26T11:58:06.590Z,78.04
2022-12-26T12:01:22.479Z,78.01
2022-12-26T12:04:28.670Z,78.03
2022-12-26T12:07:52.579Z,77.90
2022-12-26T12:11:07.367Z,77.72
2022-12-26T12:14:48.063Z,77.68
2022-12-26T12:18:04.207Z,77.72
2022-12-26T12:21:21.459Z,77.59
2022-12-26T12:24:45.360Z,77.45
2022-12-26T12:27:59.959Z,77.34
2022-12-26T12:31:15.796Z,77.30
2022-12-26T12:34:24.456Z,77.38
2022-12-26T12:37:41.121Z,77.25
2022-12-26T12:40:54.492Z,77.10
2022-12-26T12:44:11.796Z,77.11
2022-12-26T12:47:28.139Z,77.20
2022-12-26T12:50:45.671Z,77.11
2022-12-26T12:54:41.511Z,76.93
2022-12-26T12:57:51.612Z,76.94
2022-12-26T13:01:00.874Z,77.00
2022-12-26T13:04:12.790Z,76.83
2022-12-26T13:07:25.736Z,76.72
2022-12-26T13:10:36.084Z,76.70
2022-12-26T13:13:53.554Z,76.64
2022-12-26T13:17:04.676Z,76.73
2022-12-26T13:20:24.775Z,76.53
2022-12-26T13:23:52.039Z,76.53
2022-12-26T13:27:10.630Z,76.65
2022-12-26T13:30:19.007Z,76.60
2022-12-26T13:33:25.843Z,76.42
2022-12-26T13:36:40.787Z,76.44
2022-12-26T13:39:47.047Z,76.39
2022-12-26T13:43:11.167Z,76.41
2022-12-26T13:46:39.382Z,76.32
2022-12-26T13:49:46.075Z,76.27
2022-12-26T13:52:53.529Z,76.40
2022-12-26T13:56:02.384Z,76.56
2022-12-26T13:59:19.236Z,76.39
2022-12-26T14:03:16.893Z,76.44
2022-12-26T14:06:52.049Z,76.38
2022-12-26T14:10:05.962Z,76.27
2022-12-26T14:13:33.768Z,76.12
2022-12-26T14:16:48.194Z,76.33
2022-12-26T14:20:04.244Z,76.44
2022-12-26T14:23:25.513Z,76.45
2022-12-26T14:26:41.915Z,76.46
2022-12-26T14:29:55.707Z,76.41
2022-12-26T14:33:23.944Z,76.35
2022-12-26T14:36:41.347Z,76.37
2022-12-26T14:40:10.046Z,76.53
2022-12-26T14:43:41.453Z,76.53
2022-12-26T14:47:03.135Z,76.51
2022-12-26T14:50:44.564Z,76.64
2022-12-26T14:54:25.628Z,76.58
2022-12-26T14:57:49.530Z,76.61
2022-12-26T15:00:57.563Z,76.65
2022-12-26T15:04:08.540Z,76.66
2022-12-26T15:07:56.208Z,76.66
2022-12-26T15:11:45.376Z,76.76
2022-12-26T15:15:19.962Z,76.55
2022-12-26T15:19:05.812Z,76.54
2022-12-26T15:22:39.098Z,76.67
2022-12-26T15:26:14.237Z,76.60
2022-12-26T15:29:40.510Z,76.63
2022-12-26T15:32:59.027Z,76.76
2022-12-26T15:36:08.518Z,76.66
2022-12-26T15:39:25.773Z,76.57
2022-12-26T15:42:44.803Z,76.62
2022-12-26T15:45:56.888Z,76.60
2022-12-26T15:49:26.742Z,76.66
2022-12-26T15:52:44.838Z,76.67
2022-12-26T15:56:05.771Z,76.63
2022-12-26T15:59:53.884Z,76.73
2022-12-26T16:03:19.363Z,76.54
2022-12-26T16:06:41.418Z,76.66
2022-12-26T16:09:51.900Z,76.68
2022-12-26T16:13:07.521Z,76.64
2022-12-26T16:16:24.312Z,76.76
2022-12-26T16:19:30.819Z,76.80
2022-12-26T16:22:47.087Z,76.76
2022-12-26T16:25:55.647Z,76.84
2022-12-26T16:29:03.364Z,76.93
2022-12-26T16:32:15.577Z,76.83
2022-12-26T16:35:25.715Z,76.82
2022-12-26T16:38:33.175Z,76.88
2022-12-26T16:41:58.729Z,77.00
2022-12-26T16:45:05.668Z,76.99
2022-12-26T16:48:15.136Z,76.97
2022-12-26T16:51:40.373Z,76.99
2022-12-26T16:54:46.669Z,76.80
2022-12-26T16:57:52.084Z,76.83
2022-12-26T17:01:07.211Z,76.69
2022-12-26T17:04:23.038Z,76.92
2022-12-26T17:07:30.652Z,76.95
2022-12-26T17:10:38.953Z,76.83
2022-12-26T17:13:54.248Z,76.94
2022-12-26T17:17:05.038Z,76.93
2022-12-26T17:20:36.342Z,77.08
2022-12-26T17:23:43.210Z,77.01
2022-12-26T17:26:54.086Z,76.98
2022-12-26T17:30:02.213Z,77.03
2022-12-26T17:33:15.800Z,77.23
2022-12-26T17:37:00.507Z,77.10
2022-12-26T17:39:59.056Z,77.29
2022-12-26T17:43:22.214Z,77.34
2022-12-26T17:46:28.555Z,77.57
2022-12-26T17:49:34.747Z,77.84
2022-12-26T17:52:39.213Z,77.74
2022-12-26T18:08:29.617Z,77.92
2022-12-26T18:11:36.187Z,78.29
2022-12-26T18:14:42.280Z,78.63
2022-12-26T18:17:47.657Z,78.77
2022-12-26T18:20:53.747Z,78.90
2022-12-26T18:23:59.949Z,79.01
2022-12-26T18:27:04.529Z,79.13
2022-12-26T18:30:17.685Z,79.08
2022-12-26T18:33:24.261Z,79.12
2022-12-26T18:36:34.075Z,79.16
2022-12-26T18:39:40.259Z,79.29
2022-12-26T18:42:44.727Z,79.31
2022-12-26T18:45:51.785Z,79.41
2022-12-26T18:48:58.193Z,79.29
2022-12-26T18:52:04.666Z,79.50
2022-12-26T18:55:11.773Z,79.66
2022-12-26T18:58:17.782Z,79.60
2022-12-26T19:01:24.402Z,79.71
2022-12-26T19:04:30.879Z,79.77
2022-12-26T19:07:37.172Z,79.86
2022-12-26T19:10:47.489Z,79.93
2022-12-26T19:13:53.689Z,79.94
2022-12-26T19:16:58.137Z,79.90
2022-12-26T19:20:05.106Z,80.06
2022-12-26T19:23:11.252Z,80.19
2022-12-26T19:26:17.348Z,80.17
2022-12-26T19:29:23.937Z,80.34
2022-12-26T19:32:30.521Z,80.15
2022-12-26T19:35:37.096Z,80.22
2022-12-26T19:38:43.892Z,80.28
2022-12-26T19:41:51.068Z,80.31
2022-12-26T19:44:58.096Z,80.38
2022-12-26T19:48:05.277Z,80.52
2022-12-26T19:51:13.658Z,80.49
2022-12-26T19:54:20.744Z,80.55
2022-12-26T19:57:27.814Z,80.72
2022-12-26T20:00:34.542Z,80.78
2022-12-26T20:03:42.394Z,80.72
2022-12-26T20:06:49.458Z,80.88
2022-12-26T20:09:56.266Z,80.77
2022-12-26T20:13:02.789Z,80.67
2022-12-26T20:16:37.341Z,80.79
2022-12-26T20:19:39.891Z,80.65
2022-12-26T20:22:52.838Z,80.62
2022-12-26T20:26:01.396Z,80.66
2022-12-26T20:29:08.506Z,80.58
2022-12-26T20:32:14.980Z,80.65
2022-12-26T20:35:21.405Z,80.51
2022-12-26T20:38:27.640Z,80.47
2022-12-26T20:41:32.129Z,80.52
2022-12-26T20:44:41.547Z,80.48
2022-12-26T20:47:48.078Z,80.52
2022-12-26T20:51:00.835Z,80.62
2022-12-26T20:54:07.748Z,80.57
2022-12-26T20:57:14.026Z,80.56
2022-12-26T21:00:19.141Z,80.64
2022-12-26T21:03:25.718Z,80.52
2022-12-26T21:06:34.250Z,80.49
2022-12-26T21:09:46.006Z,80.53
2022-12-26T21:12:53.192Z,80.57
2022-12-26T21:16:09.748Z,80.42
2022-12-26T21:19:17.004Z,80.34
2022-12-26T21:22:26.747Z,80.45
2022-12-26T21:25:34.410Z,80.45
2022-12-26T21:28:41.056Z,80.33
2022-12-26T21:31:48.645Z,80.17
2022-12-26T21:34:54.857Z,80.33
2022-12-26T21:37:59.512Z,80.22
2022-12-26T21:41:07.223Z,80.24
2022-12-26T21:44:13.517Z,80.31
2022-12-26T21:47:19.836Z,80.23
2022-12-26T21:50:26.182Z,80.27
2022-12-26T21:53:32.509Z,80.22
2022-12-26T21:56:38.948Z,80.19
2022-12-26T21:59:57.800Z,80.15
2022-12-26T22:03:37.938Z,80.17
2022-12-26T22:06:45.096Z,80.20
2022-12-26T22:09:51.516Z,80.11
2022-12-26T22:13:00.867Z,80.14
2022-12-26T22:16:10.216Z,80.10
2022-12-26T22:19:16.439Z,80.01
2022-12-26T22:22:21.035Z,79.97
2022-12-26T22:25:27.414Z,79.95
2022-12-26T22:28:33.997Z,79.98
2022-12-26T22:31:40.408Z,80.04
2022-12-26T22:34:46.578Z,79.92
2022-12-26T22:37:51.059Z,80.03
2022-12-26T22:41:01.407Z,80.05
2022-12-26T22:44:08.459Z,79.90
2022-12-26T22:47:14.693Z,79.84
2022-12-26T22:50:19.067Z,79.94
2022-12-26T22:53:27.381Z,79.98
2022-12-26T22:56:34.407Z,79.89
2022-12-26T23:00:07.468Z,79.85
2022-12-26T23:03:07.308Z,79.68
2022-12-26T23:06:23.425Z,79.59
2022-12-26T23:09:30.915Z,79.56
2022-12-26T23:12:48.076Z,79.41
2022-12-26T23:16:00.810Z,79.42
2022-12-26T23:19:37.982Z,79.55
2022-12-26T23:22:44.701Z,79.41
2022-12-26T23:25:50.857Z,79.44
2022-12-26T23:29:12.840Z,79.30
2022-12-26T23:32:19.130Z,79.32
2022-12-26T23:35:26.932Z,79.34
2022-12-26T23:38:33.186Z,79.41
2022-12-26T23:41:37.727Z,79.51
2022-12-26T23:44:44.205Z,79.35
2022-12-26T23:47:50.388Z,79.49
2022-12-26T23:51:05.739Z,79.37
2022-12-26T23:54:12.097Z,79.43
2022-12-26T23:57:18.327Z,79.48
